Time;durP1;ratioP1;P1;durP2;ratioP2;P2;SDS_P1;SDS_P2;PMS_P1;PMS_P2;Temp;Humidity;BMP_temperature;BMP_pressure;BME280_temperature;BME280_humidity;BME280_pressure;Samples;Min_cycle;Max_cycle;Signal;HPM_P1;HPM_P2
2022/07/04 00:00:00;;;;;;;;;;;;;;;22.48;49.46;101697.59;2099498;28;1050;-49
2022/07/04 00:01:00;;;;;;;;;;;;;;;22.47;49.17;101700.34;2098528;28;949;-47
2022/07/04 00:02:01;;;;;;;;;;;;;;;22.43;49.58;101699.50;2099373;28;1078;-47
2022/07/04 00:03:01;;;;;;;;;;;;;;;22.36;49.87;101696.09;2099420;28;1169;-48
2022/07/04 00:04:01;;;;;;;;;;;;;;;22.36;50.03;101690.72;2099320;28;1066;-52
2022/07/04 00:05:01;;;;;;;;;;;;;;;22.41;49.75;101692.38;2099457;28;1098;-52
2022/07/04 00:06:01;;;;;;;;;;;;;;;22.45;49.44;101686.00;2090358;28;1427;-51
2022/07/04 00:07:02;;;;;;;;;;;;;;;22.48;49.88;101694.00;2090580;28;1083;-51
2022/07/04 00:08:02;;;;;;;;;;;;;;;22.48;49.87;101696.69;2099253;28;1160;-51
2022/07/04 00:09:02;;;;;;;;;;;;;;;22.49;49.92;101693.06;2099323;28;1079;-51
2022/07/04 00:10:03;;;;;;;;;;;;;;;22.46;49.92;101687.75;2099116;28;1890;-51
2022/07/04 00:11:03;;;;;;;;;;;;;;;22.44;50.45;101689.63;2099336;28;1067;-49
2022/07/04 00:12:04;;;;;;;;;;;;;;;22.42;50.41;101694.13;2099292;28;1143;-48
2022/07/04 00:13:05;;;;;;;;;;;;;;;22.41;50.71;101690.56;2099248;28;1333;-49
2022/07/04 00:14:05;;;;;;;;;;;;;;;22.40;50.43;101693.28;2098436;28;1066;-48
2022/07/04 00:15:06;;;;;;;;;;;;;;;22.38;50.61;101690.66;2098994;28;1253;-48
2022/07/04 00:16:06;;;;;;;;;;;;;;;22.36;50.59;101695.22;2099140;28;1241;-48
2022/07/04 00:17:07;;;;;;;;;;;;;;;22.35;51.27;101691.63;2099260;28;1191;-48
2022/07/04 00:18:07;;;;;;;;;;;;;;;22.36;51.21;101687.13;2099096;28;1161;-50
2022/07/04 00:19:07;;;;;;;;;;;;;;;22.35;51.40;101688.94;2099262;28;1313;-49
2022/07/04 00:20:08;;;;;;;;;;;;;;;22.39;50.64;101680.72;2099172;28;1320;-49
2022/07/04 00:21:08;;;;;;;;;;;;;;;22.40;50.75;101687.91;2099143;28;1183;-48
2022/07/04 00:22:08;;;;;;;;;;;;;;;22.42;51.37;101688.75;2099110;28;1245;-49
2022/07/04 00:23:08;;;;;;;;;;;;;;;22.45;51.16;101686.00;2099205;28;1071;-53
2022/07/04 00:24:08;;;;;;;;;;;;;;;22.51;51.50;101683.13;2099097;28;1350;-52
2022/07/04 00:25:08;;;;;;;;;;;;;;;22.55;51.27;101687.50;2099050;28;1131;-53
2022/07/04 00:26:09;;;;;;;;;;;;;;;22.56;51.06;101689.28;2099165;28;1114;-52
2022/07/04 00:27:09;;;;;;;;;;;;;;;22.57;51.13;101684.78;2099211;28;1235;-53
2022/07/04 00:28:09;;;;;;;;;;;;;;;22.55;51.20;101683.94;2097859;28;1278;-49
2022/07/04 00:29:09;;;;;;;;;;;;;;;22.54;51.12;101682.16;2099317;28;1122;-49
2022/07/04 00:30:09;;;;;;;;;;;;;;;22.46;51.96;101682.38;2099006;28;1922;-49
2022/07/04 00:31:10;;;;;;;;;;;;;;;22.42;51.91;101676.16;2099123;28;1114;-48
2022/07/04 00:32:10;;;;;;;;;;;;;;;22.44;51.99;101686.91;2099034;28;1114;-48
2022/07/04 00:33:10;;;;;;;;;;;;;;;22.41;52.19;101684.28;2099073;28;1059;-48
2022/07/04 00:34:11;;;;;;;;;;;;;;;22.38;51.89;101681.66;2098784;28;1107;-47
2022/07/04 00:35:11;;;;;;;;;;;;;;;22.39;52.22;101680.72;2099105;28;1126;-49
2022/07/04 00:36:11;;;;;;;;;;;;;;;22.35;52.43;101675.44;2099145;28;1115;-48
2022/07/04 00:37:12;;;;;;;;;;;;;;;22.37;53.07;101672.69;2099000;28;1129;-48
2022/07/04 00:38:12;;;;;;;;;;;;;;;22.39;53.43;101676.22;2099116;28;1123;-53
2022/07/04 00:39:12;;;;;;;;;;;;;;;22.45;53.18;101676.09;2099079;28;1185;-51
2022/07/04 00:40:12;;;;;;;;;;;;;;;22.48;53.51;101677.81;2098991;28;1130;-51
2022/07/04 00:41:13;;;;;;;;;;;;;;;22.49;53.68;101671.47;2099073;28;1051;-50
2022/07/04 00:42:13;;;;;;;;;;;;;;;22.49;53.14;101677.78;2097879;28;1114;-52
2022/07/04 00:43:20;;;;;;;;;;;;;;;22.49;53.80;101676.88;2099154;28;1130;-50
2022/07/04 00:44:20;;;;;;;;;;;;;;;22.46;53.96;101676.97;2099147;28;1083;-48
2022/07/04 00:45:20;;;;;;;;;;;;;;;22.45;53.88;101675.19;2099092;28;1146;-48
2022/07/04 00:46:20;;;;;;;;;;;;;;;22.39;54.83;101670.84;2098975;28;1126;-47
2022/07/04 00:47:20;;;;;;;;;;;;;;;22.40;54.68;101669.91;2099079;28;1094;-50
2022/07/04 00:48:21;;;;;;;;;;;;;;;22.39;54.96;101667.22;2098919;28;1047;-48
2022/07/04 00:49:21;;;;;;;;;;;;;;;22.36;55.16;101669.13;2098933;28;1191;-51
2022/07/04 00:50:21;;;;;;;;;;;;;;;22.39;55.12;101669.94;2098701;28;1894;-50
2022/07/04 00:51:22;;;;;;;;;;;;;;;22.41;54.45;101663.56;2098841;28;1067;-50
2022/07/04 00:52:22;;;;;;;;;;;;;;;22.41;55.16;101668.06;2098783;28;1194;-49
2022/07/04 00:53:23;;;;;;;;;;;;;;;22.43;54.95;101668.91;2098898;28;1239;-53
2022/07/04 00:54:27;;;;;;;;;;;;;;;22.46;54.09;101667.06;2098815;28;1277;-52
2022/07/04 00:55:28;;;;;;;;;;;;;;;22.47;53.68;101673.34;2098922;28;1122;-53
2022/07/04 00:56:29;;;;;;;;;;;;;;;22.49;53.77;101666.97;2097679;28;1094;-53
2022/07/04 00:57:29;;;;;;;;;;;;;;;22.47;53.46;101667.94;2098895;28;1087;-53
2022/07/04 00:58:30;;;;;;;;;;;;;;;22.44;53.27;101662.63;2098964;28;1023;-50
2022/07/04 00:59:30;;;;;;;;;;;;;;;22.41;53.71;101657.28;2098444;28;1076;-50
2022/07/04 01:00:30;;;;;;;;;;;;;;;22.40;52.82;101660.91;2098864;28;1114;-50
2022/07/04 01:01:31;;;;;;;;;;;;;;;22.34;52.69;101661.97;2098889;28;1330;-49
2022/07/04 01:02:31;;;;;;;;;;;;;;;22.34;52.10;101661.97;2098828;28;1226;-47
2022/07/04 01:03:31;;;;;;;;;;;;;;;22.32;51.94;101658.44;2098903;28;1342;-49
2022/07/04 01:04:31;;;;;;;;;;;;;;;22.30;51.54;101657.59;2098852;28;1189;-52
2022/07/04 01:05:31;;;;;;;;;;;;;;;22.35;51.91;101658.34;2098768;28;1154;-52
2022/07/04 01:06:32;;;;;;;;;;;;;;;22.36;51.19;101662.81;2098557;28;1090;-51
2022/07/04 01:07:33;;;;;;;;;;;;;;;22.34;51.30;101662.88;2098484;28;1111;-52
2022/07/04 01:08:33;;;;;;;;;;;;;;;22.36;50.50;101658.31;2089852;28;1328;-53
2022/07/04 01:09:33;;;;;;;;;;;;;;;22.34;50.33;101664.66;2089645;28;1159;-51
2022/07/04 01:10:33;;;;;;;;;;;;;;;22.31;49.99;101657.56;2097581;28;1966;-50
2022/07/04 01:11:34;;;;;;;;;;;;;;;22.27;50.21;101650.47;2098784;28;1348;-48
2022/07/04 01:12:35;;;;;;;;;;;;;;;22.26;50.15;101653.19;2098836;28;1229;-51
2022/07/04 01:13:36;;;;;;;;;;;;;;;22.25;50.26;101659.53;2098432;28;1099;-47
2022/07/04 01:14:36;;;;;;;;;;;;;;;22.25;50.03;101655.03;2098574;28;1032;-49
2022/07/04 01:15:36;;;;;;;;;;;;;;;22.22;50.17;101657.81;2098304;28;1020;-48
2022/07/04 01:16:37;;;;;;;;;;;;;;;22.19;50.16;101649.81;2098909;28;1055;-48
2022/07/04 01:17:37;;;;;;;;;;;;;;;22.18;50.37;101651.59;2098898;28;1066;-49
2022/07/04 01:18:38;;;;;;;;;;;;;;;22.17;49.70;101649.81;2098738;28;1330;-49
2022/07/04 01:19:38;;;;;;;;;;;;;;;22.19;50.30;101650.66;2098324;28;1196;-50
2022/07/04 01:20:38;;;;;;;;;;;;;;;22.24;49.82;101652.34;2098814;28;1258;-50
2022/07/04 01:21:39;;;;;;;;;;;;;;;22.26;50.16;101647.81;2098250;28;1179;-51
2022/07/04 01:22:39;;;;;;;;;;;;;;;22.30;50.20;101653.09;2098409;28;1159;-52
2022/07/04 01:23:40;;;;;;;;;;;;;;;22.33;49.97;101646.72;2098212;28;1273;-54
2022/07/04 01:24:40;;;;;;;;;;;;;;;22.37;50.03;101648.41;2097762;28;1222;-51
2022/07/04 01:25:40;;;;;;;;;;;;;;;22.38;49.94;101654.66;2098551;28;1146;-51
2022/07/04 01:26:40;;;;;;;;;;;;;;;22.39;50.49;101645.63;2098713;28;1414;-53
2022/07/04 01:27:41;;;;;;;;;;;;;;;22.39;50.53;101651.03;2097985;28;1079;-51
2022/07/04 01:28:41;;;;;;;;;;;;;;;22.36;50.29;101649.31;2098559;28;1324;-49
2022/07/04 01:29:42;;;;;;;;;;;;;;;22.33;50.83;101646.72;2098637;28;1255;-48
2022/07/04 01:30:42;;;;;;;;;;;;;;;22.28;50.82;101641.44;2098612;28;1983;-47
2022/07/04 01:31:42;;;;;;;;;;;;;;;22.27;50.72;101645.09;2098608;28;1225;-50
2022/07/04 01:32:42;;;;;;;;;;;;;;;22.24;50.93;101639.75;2098769;28;1217;-48
2022/07/04 01:33:42;;;;;;;;;;;;;;;22.25;50.89;101636.13;2098635;28;1268;-48
2022/07/04 01:34:43;;;;;;;;;;;;;;;22.25;50.62;101646.03;2098757;28;1153;-49
2022/07/04 01:35:43;;;;;;;;;;;;;;;22.23;51.29;101638.00;2098529;28;1331;-50
2022/07/04 01:36:43;;;;;;;;;;;;;;;22.19;50.79;101637.19;2098659;28;1134;-48
2022/07/04 01:37:44;;;;;;;;;;;;;;;22.19;51.14;101637.19;2098374;28;1328;-53
2022/07/04 01:38:44;;;;;;;;;;;;;;;22.27;50.89;101636.09;2097738;28;1562;-53
2022/07/04 01:39:44;;;;;;;;;;;;;;;22.31;51.14;101626.97;2098419;28;1321;-51
2022/07/04 01:40:45;;;;;;;;;;;;;;;22.31;51.31;101638.66;2098586;28;1353;-51
2022/07/04 01:41:45;;;;;;;;;;;;;;;22.35;50.90;101632.25;2098452;28;1225;-52
2022/07/04 01:42:45;;;;;;;;;;;;;;;22.34;51.40;101629.59;2098648;28;1339;-52
2022/07/04 01:43:45;;;;;;;;;;;;;;;22.33;51.33;101639.50;2098492;28;1209;-51
2022/07/04 01:44:46;;;;;;;;;;;;;;;22.29;51.60;101631.53;2098475;28;1428;-48
2022/07/04 01:45:46;;;;;;;;;;;;;;;22.28;51.40;101629.75;2098412;28;1194;-48
2022/07/04 01:46:46;;;;;;;;;;;;;;;22.27;51.09;101627.97;2098496;28;1201;-49
2022/07/04 01:47:47;;;;;;;;;;;;;;;22.24;51.57;101622.66;2098603;28;1150;-48
2022/07/04 01:48:47;;;;;;;;;;;;;;;22.24;51.88;101628.97;2098517;28;1319;-48
2022/07/04 01:49:47;;;;;;;;;;;;;;;22.23;51.63;101627.19;2098524;28;1250;-51
2022/07/04 01:50:47;;;;;;;;;;;;;;;22.25;51.65;101627.13;2098546;28;2054;-50
2022/07/04 01:51:49;;;;;;;;;;;;;;;22.27;51.56;101627.97;2098242;28;1091;-50
2022/07/04 01:52:49;;;;;;;;;;;;;;;22.28;51.78;101633.34;2097917;28;1019;-54
2022/07/04 01:53:49;;;;;;;;;;;;;;;22.32;51.79;101635.03;2098510;28;1393;-53
2022/07/04 01:54:49;;;;;;;;;;;;;;;22.34;51.72;101632.28;2098441;28;1138;-52
2022/07/04 01:55:49;;;;;;;;;;;;;;;22.35;51.92;101626.84;2098446;28;1197;-53
2022/07/04 01:56:49;;;;;;;;;;;;;;;22.36;51.83;101616.94;2098617;28;1252;-53
2022/07/04 01:57:50;;;;;;;;;;;;;;;22.34;51.39;101622.38;2098374;28;1229;-53
2022/07/04 01:58:50;;;;;;;;;;;;;;;22.32;51.65;101624.25;2098520;28;1253;-49
2022/07/04 02:02:28;;;;;;;;;;;;;;;22.24;51.02;101626.28;2098485;28;952;-48
2022/07/04 02:03:28;;;;;;;;;;;;;;;22.19;51.04;101626.38;2098571;28;1134;-49
2022/07/04 02:04:28;;;;;;;;;;;;;;;22.24;50.89;101628.06;2098507;28;1095;-52
2022/07/04 02:05:28;;;;;;;;;;;;;;;22.28;50.13;101625.25;2098529;28;1178;-52
2022/07/04 02:06:29;;;;;;;;;;;;;;;22.29;50.34;101624.31;2089876;28;1121;-51
2022/07/04 02:07:29;;;;;;;;;;;;;;;22.32;50.05;101621.53;2089655;28;1130;-53
2022/07/04 02:09:14;;;;;;;;;;;;;;;22.31;49.45;101622.47;2098560;28;1102;-53
2022/07/04 02:09:49;;;;;;;;;;;;;;;22.32;49.34;101624.25;2098067;28;1054;-52
2022/07/04 02:10:49;;;;;;;;;;;;;;;22.27;49.65;101626.19;2098442;28;1886;-49
2022/07/04 02:13:08;;;;;;;;;;;;;;;22.24;49.44;101626.28;2098544;28;1011;-48
2022/07/04 02:14:08;;;;;;;;;;;;;;;22.19;49.78;101622.81;2098845;28;1311;-48
2022/07/04 02:15:09;;;;;;;;;;;;;;;22.22;49.67;101622.72;2099634;28;1067;-50
2022/07/04 02:16:09;;;;;;;;;;;;;;;22.19;49.80;101625.50;2100156;28;1150;-48
2022/07/04 02:17:09;;;;;;;;;;;;;;;22.20;49.31;101617.34;2100190;28;1258;-49
2022/07/04 02:18:10;;;;;;;;;;;;;;;22.17;49.92;101620.13;2100092;28;1154;-48
2022/07/04 02:19:11;;;;;;;;;;;;;;;22.16;49.99;101621.06;2100118;28;1233;-52
2022/07/04 02:20:11;;;;;;;;;;;;;;;22.23;49.88;101621.81;2091785;28;1202;-51
2022/07/04 02:21:12;;;;;;;;;;;;;;;22.21;49.39;101618.25;2091277;28;1245;-49
2022/07/04 02:22:13;;;;;;;;;;;;;;;22.23;50.12;101619.09;2098923;28;929;-49
2022/07/04 02:23:13;;;;;;;;;;;;;;;22.30;49.46;101617.09;2100085;28;1114;-54
2022/07/04 02:24:13;;;;;;;;;;;;;;;22.33;49.54;101615.22;2099998;28;1189;-52
2022/07/04 02:25:14;;;;;;;;;;;;;;;22.37;49.85;101616.00;2100066;28;1107;-53
2022/07/04 02:26:14;;;;;;;;;;;;;;;22.39;49.25;101619.53;2100002;28;1098;-53
2022/07/04 02:27:14;;;;;;;;;;;;;;;22.38;49.67;101620.47;2100000;28;1043;-53
2022/07/04 02:28:14;;;;;;;;;;;;;;;22.36;49.95;101614.22;2099702;28;1295;-51
2022/07/04 02:29:14;;;;;;;;;;;;;;;22.34;49.90;101613.38;2100152;28;1036;-50
2022/07/04 02:30:14;;;;;;;;;;;;;;;22.30;50.38;101611.69;2099885;28;1979;-49
2022/07/04 02:31:15;;;;;;;;;;;;;;;22.29;50.05;101609.94;2100083;28;1094;-49
2022/07/04 02:32:15;;;;;;;;;;;;;;;22.27;50.18;101607.28;2100123;28;1106;-49
2022/07/04 02:33:15;;;;;;;;;;;;;;;22.25;51.00;101608.25;2100209;28;1296;-48
2022/07/04 02:34:15;;;;;;;;;;;;;;;22.22;50.95;101609.22;2098816;28;1146;-48
2022/07/04 02:35:15;;;;;;;;;;;;;;;22.22;50.49;101603.84;2100047;28;1197;-49
2022/07/04 02:36:15;;;;;;;;;;;;;;;22.21;51.32;101602.06;2099856;28;1241;-49
2022/07/04 02:37:16;;;;;;;;;;;;;;;22.21;51.13;101610.16;2100005;28;1224;-50
2022/07/04 02:38:16;;;;;;;;;;;;;;;22.23;51.16;101607.41;2099922;28;1214;-53
2022/07/04 02:39:16;;;;;;;;;;;;;;;22.29;50.83;101607.25;2099935;28;1217;-52
2022/07/04 02:40:16;;;;;;;;;;;;;;;22.32;51.31;101605.34;2100018;28;1248;-51
2022/07/04 02:41:16;;;;;;;;;;;;;;;22.34;51.15;101610.69;2091119;28;1170;-52
2022/07/04 02:42:16;;;;;;;;;;;;;;;22.36;51.46;101609.72;2091153;28;1138;-53
2022/07/04 02:43:17;;;;;;;;;;;;;;;22.35;50.75;101607.06;2099859;28;1221;-52
2022/07/04 02:44:17;;;;;;;;;;;;;;;22.31;51.72;101616.19;2099881;28;1146;-50
2022/07/04 02:45:17;;;;;;;;;;;;;;;22.30;51.67;101612.59;2099965;28;1135;-48
2022/07/04 02:46:17;;;;;;;;;;;;;;;22.27;51.93;101607.28;2099852;28;1293;-48
2022/07/04 02:47:17;;;;;;;;;;;;;;;22.29;51.39;101610.84;2099985;28;1222;-48
2022/07/04 02:48:17;;;;;;;;;;;;;;;22.26;52.07;101599.22;2098907;28;1202;-47
2022/07/04 02:49:18;;;;;;;;;;;;;;;22.29;51.95;101608.13;2099927;28;1063;-50
2022/07/04 02:50:18;;;;;;;;;;;;;;;22.29;51.95;101604.53;2099827;28;1893;-50
2022/07/04 02:51:18;;;;;;;;;;;;;;;22.29;52.04;101600.03;2099889;28;1138;-49
2022/07/04 02:52:18;;;;;;;;;;;;;;;22.28;52.44;101603.66;2099929;28;1158;-49
2022/07/04 02:53:18;;;;;;;;;;;;;;;22.32;52.02;101596.34;2099776;28;1087;-53
2022/07/04 02:54:19;;;;;;;;;;;;;;;22.35;52.49;101594.47;2099767;28;1193;-52
2022/07/04 02:55:19;;;;;;;;;;;;;;;22.38;52.10;101592.56;2100065;28;1198;-52
2022/07/04 02:56:19;;;;;;;;;;;;;;;22.39;52.62;101591.66;2099792;28;1101;-53
2022/07/04 02:57:19;;;;;;;;;;;;;;;22.36;52.74;101588.13;2099866;28;1047;-52
2022/07/04 02:58:19;;;;;;;;;;;;;;;22.38;53.75;101581.78;2099780;28;1114;-50
2022/07/04 02:59:19;;;;;;;;;;;;;;;22.34;54.54;101581.91;2099934;28;1067;-49
2022/07/04 03:00:19;;;;;;;;;;;;;;;22.34;54.96;101517.13;2099777;28;1176;-48
2022/07/04 03:01:20;;;;;;;;;;;;;;;22.32;55.78;101528.88;2099880;28;1153;-48
2022/07/04 03:02:20;;;;;;;;;;;;;;;22.28;55.70;101528.09;2098941;28;1097;-50
2022/07/04 03:03:20;;;;;;;;;;;;;;;22.28;56.53;101533.50;2099716;28;1002;-49
2022/07/04 03:04:20;;;;;;;;;;;;;;;22.31;56.30;101517.22;2099735;28;1098;-52
2022/07/04 03:05:20;;;;;;;;;;;;;;;22.30;55.68;101509.16;2099849;28;1059;-51
2022/07/04 03:06:21;;;;;;;;;;;;;;;22.33;56.14;101500.97;2099636;28;1067;-53
2022/07/04 03:07:21;;;;;;;;;;;;;;;22.33;55.63;101553.13;2099729;28;1047;-51
2022/07/04 03:08:21;;;;;;;;;;;;;;;22.33;55.65;101626.00;2099653;28;1110;-52
2022/07/04 03:09:21;;;;;;;;;;;;;;;22.32;55.85;101594.56;2099662;28;1101;-51
2022/07/04 03:10:21;;;;;;;;;;;;;;;22.27;55.43;101585.69;2099490;28;1905;-50
2022/07/04 03:11:21;;;;;;;;;;;;;;;22.28;55.50;101570.38;2099674;28;1085;-49
2022/07/04 03:12:22;;;;;;;;;;;;;;;22.21;55.02;101573.25;2099666;28;1039;-48
2022/07/04 03:13:22;;;;;;;;;;;;;;;22.18;55.14;101575.16;2099790;28;979;-48
2022/07/04 03:14:22;;;;;;;;;;;;;;;22.17;54.26;101573.41;2099508;28;1190;-50
2022/07/04 03:15:22;;;;;;;;;;;;;;;22.15;53.91;101576.13;2099583;28;1067;-49
2022/07/04 03:16:22;;;;;;;;;;;;;;;22.13;53.69;101572.59;2098879;28;1134;-51
2022/07/04 03:17:23;;;;;;;;;;;;;;;22.12;53.12;101573.50;2099466;28;983;-49
2022/07/04 03:18:23;;;;;;;;;;;;;;;22.10;53.12;101572.66;2099539;28;1197;-48
2022/07/04 03:19:23;;;;;;;;;;;;;;;22.13;52.31;101574.41;2099601;28;1193;-51
2022/07/04 03:20:23;;;;;;;;;;;;;;;22.13;52.50;101567.19;2099576;28;1201;-52
2022/07/04 03:21:23;;;;;;;;;;;;;;;22.14;52.09;101562.69;2099653;28;1134;-49
2022/07/04 03:22:23;;;;;;;;;;;;;;;22.14;51.58;101541.09;2099621;28;1090;-48
2022/07/04 03:23:24;;;;;;;;;;;;;;;22.17;50.53;101535.63;2099533;28;1138;-53
2022/07/04 03:24:24;;;;;;;;;;;;;;;22.21;51.24;101538.16;2099533;28;1123;-52
2022/07/04 03:25:24;;;;;;;;;;;;;;;22.22;50.28;101539.06;2099155;28;1134;-53
2022/07/04 03:26:26;;;;;;;;;;;;;;;22.24;50.78;101537.22;2098822;28;1138;-53
2022/07/04 03:27:26;;;;;;;;;;;;;;;22.24;49.58;101537.22;2099656;28;1166;-52
2022/07/04 03:28:26;;;;;;;;;;;;;;;22.22;49.92;101539.06;2099433;28;1246;-50
2022/07/04 03:29:26;;;;;;;;;;;;;;;22.15;49.92;101538.34;2099626;28;1130;-50
2022/07/04 03:30:27;;;;;;;;;;;;;;;22.15;50.19;101532.09;2099158;28;1987;-50
2022/07/04 03:31:28;;;;;;;;;;;;;;;22.11;49.59;101525.00;2099039;28;1049;-48
2022/07/04 03:32:28;;;;;;;;;;;;;;;22.08;49.95;101530.50;2099589;28;1154;-48
2022/07/04 03:33:28;;;;;;;;;;;;;;;22.09;50.46;101527.72;2099754;28;1205;-48
2022/07/04 03:34:28;;;;;;;;;;;;;;;22.05;50.16;101526.09;2099547;28;1051;-49
2022/07/04 03:35:28;;;;;;;;;;;;;;;22.06;49.93;101528.72;2099593;28;1150;-49
2022/07/04 03:36:29;;;;;;;;;;;;;;;22.04;50.22;101530.56;2099519;28;1150;-49
2022/07/04 03:37:29;;;;;;;;;;;;;;;22.05;50.24;101529.66;2099740;28;1158;-50
2022/07/04 03:38:29;;;;;;;;;;;;;;;22.08;50.61;101530.50;2099586;28;1043;-53
2022/07/04 03:39:29;;;;;;;;;;;;;;;22.13;49.90;101526.72;2099628;28;1134;-51
2022/07/04 03:40:30;;;;;;;;;;;;;;;22.17;50.44;101528.41;2099482;28;1090;-51
2022/07/04 03:41:31;;;;;;;;;;;;;;;22.20;50.12;101525.59;2099517;28;1067;-52
2022/07/04 03:42:31;;;;;;;;;;;;;;;22.21;50.42;101521.13;2099490;28;1154;-51
2022/07/04 03:43:31;;;;;;;;;;;;;;;22.17;50.59;101524.81;2099473;28;1142;-51
2022/07/04 03:44:31;;;;;;;;;;;;;;;22.16;50.92;101525.75;2099246;28;1146;-50
2022/07/04 03:45:32;;;;;;;;;;;;;;;22.16;50.09;101526.63;2098725;28;1003;-47
2022/07/04 03:46:32;;;;;;;;;;;;;;;22.12;50.88;101529.47;2099467;28;1130;-48
2022/07/04 03:47:32;;;;;;;;;;;;;;;22.09;51.41;101524.16;2099368;28;1142;-49
2022/07/04 03:48:32;;;;;;;;;;;;;;;22.09;51.21;101530.44;2099491;28;1205;-51
2022/07/04 03:49:33;;;;;;;;;;;;;;;22.09;51.42;101518.78;2099254;28;1138;-52
2022/07/04 03:50:33;;;;;;;;;;;;;;;22.13;51.16;101524.00;2099435;28;1886;-51
2022/07/04 03:51:33;;;;;;;;;;;;;;;22.15;51.20;101524.84;2090379;28;1213;-50
2022/07/04 03:52:34;;;;;;;;;;;;;;;22.15;50.68;101519.47;2090625;28;1245;-52
2022/07/04 03:53:34;;;;;;;;;;;;;;;22.20;51.31;101520.22;2099412;28;1134;-52
2022/07/04 03:54:34;;;;;;;;;;;;;;;22.21;51.05;101524.69;2099438;28;1103;-51
2022/07/04 03:55:34;;;;;;;;;;;;;;;22.23;51.29;101524.66;2099327;28;1114;-53
2022/07/04 03:56:34;;;;;;;;;;;;;;;22.22;50.75;101506.69;2099288;28;1130;-53
2022/07/04 03:57:34;;;;;;;;;;;;;;;22.21;51.51;101521.97;2099434;28;1003;-51
2022/07/04 03:58:35;;;;;;;;;;;;;;;22.19;50.99;101515.75;2099440;28;1007;-50
2022/07/04 03:59:35;;;;;;;;;;;;;;;22.17;51.60;101516.72;2098361;28;984;-49
2022/07/04 04:00:36;;;;;;;;;;;;;;;22.14;51.22;101503.34;2099301;28;1036;-48
2022/07/04 04:01:36;;;;;;;;;;;;;;;22.15;51.42;101532.09;2099228;28;1025;-50
2022/07/04 04:02:36;;;;;;;;;;;;;;;22.55;50.74;101487.72;2099333;28;1043;-49
2022/07/04 04:06:14;;;;;;;;;;;;;;;23.37;50.80;101506.63;2099253;28;952;-49
2022/07/04 04:07:14;;;;;;;;;;;;;;;23.39;51.81;101501.19;2098929;28;1177;-48
2022/07/04 04:08:15;;;;;;;;;;;;;;;23.48;51.48;101503.59;2099213;28;1281;-53
2022/07/04 04:09:18;;;;;;;;;;;;;;;23.58;51.21;101511.34;2099227;28;1165;-53
2022/07/04 04:10:18;;;;;;;;;;;;;;;23.66;51.50;101515.56;2098608;28;1933;-51
2022/07/04 04:11:18;;;;;;;;;;;;;;;23.75;51.40;101525.16;2099208;28;1206;-51
2022/07/04 04:12:18;;;;;;;;;;;;;;;23.78;50.71;101518.75;2099111;28;1193;-53
2022/07/04 04:13:19;;;;;;;;;;;;;;;23.82;50.26;101517.72;2098037;28;1079;-52
2022/07/04 04:14:19;;;;;;;;;;;;;;;23.89;50.19;101512.94;2099134;28;1194;-49
2022/07/04 04:15:19;;;;;;;;;;;;;;;23.92;49.92;101492.06;2099196;28;1201;-47
2022/07/04 04:16:19;;;;;;;;;;;;;;;23.92;49.54;101488.50;2099056;28;1126;-47
2022/07/04 04:17:19;;;;;;;;;;;;;;;23.97;48.96;101470.25;2099215;28;1150;-48
2022/07/04 04:18:19;;;;;;;;;;;;;;;24.02;48.79;101473.72;2099127;28;1178;-48
2022/07/04 04:19:20;;;;;;;;;;;;;;;24.04;47.87;101469.13;2099209;28;1126;-50
2022/07/04 04:20:20;;;;;;;;;;;;;;;24.10;47.37;101471.59;2099091;28;1139;-51
2022/07/04 04:21:20;;;;;;;;;;;;;;;24.13;46.76;101459.75;2099158;28;1205;-49
2022/07/04 04:22:20;;;;;;;;;;;;;;;24.16;47.01;101470.47;2099024;28;1060;-49
2022/07/04 04:23:20;;;;;;;;;;;;;;;24.14;47.38;101464.22;2099210;28;1086;-54
2022/07/04 04:24:20;;;;;;;;;;;;;;;24.16;47.42;101470.47;2099285;28;1197;-52
2022/07/04 04:25:20;;;;;;;;;;;;;;;24.16;46.88;101466.84;2099175;28;1130;-52
2022/07/04 04:26:21;;;;;;;;;;;;;;;24.13;47.29;101466.06;2099105;28;1179;-53
2022/07/04 04:27:21;;;;;;;;;;;;;;;24.17;47.44;101468.63;2098250;28;1197;-53
2022/07/04 04:28:22;;;;;;;;;;;;;;;24.17;46.95;101460.50;2098880;28;1254;-53
2022/07/04 04:29:22;;;;;;;;;;;;;;;24.17;47.42;101458.69;2099242;28;1110;-49
2022/07/04 04:30:22;;;;;;;;;;;;;;;24.24;46.66;101471.03;2098990;28;1980;-49
2022/07/04 04:31:22;;;;;;;;;;;;;;;24.21;47.07;101467.56;2099129;28;1213;-48
2022/07/04 04:32:22;;;;;;;;;;;;;;;24.20;47.60;101461.28;2098677;28;1111;-49
2022/07/04 04:33:23;;;;;;;;;;;;;;;24.25;47.36;101464.69;2098664;28;1127;-50
2022/07/04 04:34:23;;;;;;;;;;;;;;;24.30;47.71;101467.22;2098801;28;1142;-51
2022/07/04 04:35:23;;;;;;;;;;;;;;;24.31;48.28;101463.56;2099054;28;1146;-50
2022/07/04 04:36:23;;;;;;;;;;;;;;;24.32;48.03;101461.75;2098845;28;1194;-49
2022/07/04 04:37:23;;;;;;;;;;;;;;;24.36;47.96;101466.09;2098876;28;1154;-49
2022/07/04 04:38:23;;;;;;;;;;;;;;;24.33;48.09;101464.38;2098512;28;1091;-53
2022/07/04 04:39:24;;;;;;;;;;;;;;;24.32;48.79;101469.88;2098993;28;1304;-53
2022/07/04 04:40:24;;;;;;;;;;;;;;;24.33;49.06;101461.66;2098865;28;1229;-53
2022/07/04 04:41:24;;;;;;;;;;;;;;;24.30;49.28;101469.91;2098661;28;1240;-53
2022/07/04 04:42:24;;;;;;;;;;;;;;;24.34;48.82;101468.84;2098361;28;1051;-54
2022/07/04 04:43:25;;;;;;;;;;;;;;;24.38;48.94;101466.91;2098665;28;1103;-52
2022/07/04 04:44:25;;;;;;;;;;;;;;;24.40;49.47;101462.31;2098590;28;1075;-51
2022/07/04 04:45:25;;;;;;;;;;;;;;;24.36;48.97;101463.38;2099191;28;1244;-48
2022/07/04 04:46:25;;;;;;;;;;;;;;;24.37;48.91;101454.31;2098821;28;1201;-48
2022/07/04 04:47:25;;;;;;;;;;;;;;;24.33;49.84;101461.66;2098907;28;1071;-48
2022/07/04 04:48:26;;;;;;;;;;;;;;;24.39;49.47;101461.44;2098716;28;1228;-48
2022/07/04 04:49:26;;;;;;;;;;;;;;;24.41;49.26;101464.97;2090067;28;1110;-51
2022/07/04 04:50:26;;;;;;;;;;;;;;;24.44;48.89;101458.53;2089907;28;1894;-51
2022/07/04 04:51:26;;;;;;;;;;;;;;;24.41;49.17;101464.97;2098736;28;1193;-51
2022/07/04 04:52:26;;;;;;;;;;;;;;;24.42;48.56;101458.59;2098835;28;1146;-50
2022/07/04 04:53:27;;;;;;;;;;;;;;;24.39;48.51;101461.44;2098892;28;1130;-53
2022/07/04 04:54:27;;;;;;;;;;;;;;;24.36;48.21;101461.56;2098873;28;1042;-51
2022/07/04 04:55:27;;;;;;;;;;;;;;;24.32;48.40;101467.16;2098934;28;1282;-53
2022/07/04 04:56:27;;;;;;;;;;;;;;;24.35;48.22;101467.91;2097853;28;1026;-53
2022/07/04 04:57:27;;;;;;;;;;;;;;;24.37;47.04;101468.72;2098862;28;1142;-53
2022/07/04 04:58:27;;;;;;;;;;;;;;;24.32;47.01;101468.03;2089946;28;1726;-50
2022/07/04 04:59:31;;;;;;;;;;;;;;;24.34;46.58;101462.56;2090020;28;1178;-49
2022/07/04 05:00:31;;;;;;;;;;;;;;;24.36;46.68;101468.81;2098863;28;2018;-49
2022/07/04 05:01:31;;;;;;;;;;;;;;;24.38;46.06;101465.06;2098865;28;1337;-47
2022/07/04 05:02:31;;;;;;;;;;;;;;;24.42;45.82;101465.84;2098845;28;1051;-48
2022/07/04 05:03:31;;;;;;;;;;;;;;;24.38;45.84;101462.38;2089742;28;1122;-49
2022/07/04 05:04:31;;;;;;;;;;;;;;;24.39;45.80;101460.56;2089902;28;1167;-52
2022/07/04 05:05:32;;;;;;;;;;;;;;;24.37;44.79;101457.03;2098625;28;1146;-51
2022/07/04 05:06:32;;;;;;;;;;;;;;;24.39;44.59;101460.56;2098788;28;1138;-53
2022/07/04 05:07:33;;;;;;;;;;;;;;;24.37;45.34;101459.75;2098680;28;1067;-52
2022/07/04 05:08:33;;;;;;;;;;;;;;;24.42;44.26;101455.03;2098808;28;1189;-53
2022/07/04 05:09:34;;;;;;;;;;;;;;;24.47;44.73;101460.25;2098738;28;1055;-51
2022/07/04 05:10:34;;;;;;;;;;;;;;;24.44;44.73;101453.09;2097835;28;1886;-49
2022/07/04 05:11:34;;;;;;;;;;;;;;;24.46;44.03;101451.22;2098713;28;1079;-48
2022/07/04 05:12:34;;;;;;;;;;;;;;;24.42;44.45;101445.06;2098764;28;1035;-48
2022/07/04 05:13:34;;;;;;;;;;;;;;;24.44;44.23;101444.97;2098706;28;1051;-48
2022/07/04 05:14:35;;;;;;;;;;;;;;;24.46;44.56;101444.94;2098788;28;1036;-47
2022/07/04 05:15:35;;;;;;;;;;;;;;;24.48;43.99;101438.50;2098635;28;1141;-48
2022/07/04 05:16:35;;;;;;;;;;;;;;;24.49;44.23;101444.81;2098785;28;1066;-48
2022/07/04 05:17:35;;;;;;;;;;;;;;;24.52;44.49;101433.88;2098643;28;1035;-47
2022/07/04 05:18:35;;;;;;;;;;;;;;;24.50;43.96;101441.16;2098808;28;1035;-49
2022/07/04 05:19:35;;;;;;;;;;;;;;;24.54;44.18;101440.09;2098652;28;996;-51
2022/07/04 05:20:36;;;;;;;;;;;;;;;24.51;44.27;101437.50;2098751;28;1055;-51